sensor_id;sensor_type;location;lat;lon;timestamp;temperature;humidity
3923;DHT22;1976;51.694;6.256;2023-03-23T14:54:35;13.70;99.90
3923;DHT22;1976;51.694;6.256;2023-03-23T14:59:36;13.40;99.90
3923;DHT22;1976;51.694;6.256;2023-03-23T15:02:05;13.10;99.90
3923;DHT22;1976;51.694;6.256;2023-03-23T15:04:31;13.00;99.90
3923;DHT22;1976;51.694;6.256;2023-03-23T15:07:03;12.80;99.90
3923;DHT22;1976;51.694;6.256;2023-03-23T15:12:01;12.70;99.90
3923;DHT22;1976;51.694;6.256;2023-03-23T15:19:33;14.40;99.90
3923;DHT22;1976;51.694;6.256;2023-03-23T15:24:52;14.50;99.90
3923;DHT22;1976;51.694;6.256;2023-03-23T15:27:30;14.50;99.90
3923;DHT22;1976;51.694;6.256;2023-03-23T15:29:59;14.50;99.90
3923;DHT22;1976;51.694;6.256;2023-03-23T15:32:27;14.70;99.90
3923;DHT22;1976;51.694;6.256;2023-03-23T15:34:54;15.10;99.90
3923;DHT22;1976;51.694;6.256;2023-03-23T15:37:29;15.30;99.90
3923;DHT22;1976;51.694;6.256;2023-03-23T15:39:57;15.20;99.90
3923;DHT22;1976;51.694;6.256;2023-03-23T15:42:33;14.80;99.90
3923;DHT22;1976;51.694;6.256;2023-03-23T15:47:45;14.50;99.90
3923;DHT22;1976;51.694;6.256;2023-03-23T15:50:33;14.40;99.90
3923;DHT22;1976;51.694;6.256;2023-03-23T15:53:00;14.40;99.90
3923;DHT22;1976;51.694;6.256;2023-03-23T15:55:36;14.30;99.90
3923;DHT22;1976;51.694;6.256;2023-03-23T15:58:09;14.10;99.90
3923;DHT22;1976;51.694;6.256;2023-03-23T16:00:36;14.10;99.90
3923;DHT22;1976;51.694;6.256;2023-03-23T16:03:05;14.00;99.90
3923;DHT22;1976;51.694;6.256;2023-03-23T16:05:31;13.80;99.90
3923;DHT22;1976;51.694;6.256;2023-03-23T16:07:58;13.80;99.90
3923;DHT22;1976;51.694;6.256;2023-03-23T16:10:25;13.90;99.90
3923;DHT22;1976;51.694;6.256;2023-03-23T16:12:50;13.90;99.90
3923;DHT22;1976;51.694;6.256;2023-03-23T16:15:17;13.90;99.90
3923;DHT22;1976;51.694;6.256;2023-03-23T16:17:43;13.90;99.90
3923;DHT22;1976;51.694;6.256;2023-03-23T16:20:19;13.70;99.90
3923;DHT22;1976;51.694;6.256;2023-03-23T16:22:46;13.50;99.90
3923;DHT22;1976;51.694;6.256;2023-03-23T16:25:12;13.20;99.90
3923;DHT22;1976;51.694;6.256;2023-03-23T16:27:39;13.10;99.90
3923;DHT22;1976;51.694;6.256;2023-03-23T16:30:21;13.10;99.90
3923;DHT22;1976;51.694;6.256;2023-03-23T16:35:14;13.10;99.90
3923;DHT22;1976;51.694;6.256;2023-03-23T16:37:47;13.10;99.90
3923;DHT22;1976;51.694;6.256;2023-03-23T16:40:14;13.00;99.90
3923;DHT22;1976;51.694;6.256;2023-03-23T16:45:07;12.90;99.90
3923;DHT22;1976;51.694;6.256;2023-03-23T16:47:32;12.90;99.90
3923;DHT22;1976;51.694;6.256;2023-03-23T16:49:58;12.90;99.90
3923;DHT22;1976;51.694;6.256;2023-03-23T16:52:24;12.80;99.90
3923;DHT22;1976;51.694;6.256;2023-03-23T16:54:49;12.80;99.90
3923;DHT22;1976;51.694;6.256;2023-03-23T16:57:15;12.80;99.90
3923;DHT22;1976;51.694;6.256;2023-03-23T16:59:41;12.80;99.90
3923;DHT22;1976;51.694;6.256;2023-03-23T17:02:09;12.90;99.90
3923;DHT22;1976;51.694;6.256;2023-03-23T17:04:35;13.00;99.90
3923;DHT22;1976;51.694;6.256;2023-03-23T17:07:02;13.10;99.90
3923;DHT22;1976;51.694;6.256;2023-03-23T17:09:27;13.00;99.90
3923;DHT22;1976;51.694;6.256;2023-03-23T17:11:54;13.00;99.90
3923;DHT22;1976;51.694;6.256;2023-03-23T17:14:20;13.00;99.90
3923;DHT22;1976;51.694;6.256;2023-03-23T17:19:12;12.80;99.90
3923;DHT22;1976;51.694;6.256;2023-03-23T17:21:39;12.80;99.90
3923;DHT22;1976;51.694;6.256;2023-03-23T17:24:06;12.80;99.90
3923;DHT22;1976;51.694;6.256;2023-03-23T17:26:32;12.70;99.90
3923;DHT22;1976;51.694;6.256;2023-03-23T17:28:58;12.60;99.90
3923;DHT22;1976;51.694;6.256;2023-03-23T17:31:23;12.70;99.90
3923;DHT22;1976;51.694;6.256;2023-03-23T17:33:49;12.50;99.90
3923;DHT22;1976;51.694;6.256;2023-03-23T17:36:17;12.50;99.90
3923;DHT22;1976;51.694;6.256;2023-03-23T17:38:43;12.40;99.90
3923;DHT22;1976;51.694;6.256;2023-03-23T17:41:08;12.40;99.90
3923;DHT22;1976;51.694;6.256;2023-03-23T17:43:36;12.30;99.90
3923;DHT22;1976;51.694;6.256;2023-03-23T17:50:57;12.30;99.90
3923;DHT22;1976;51.694;6.256;2023-03-23T17:53:24;12.20;99.90
3923;DHT22;1976;51.694;6.256;2023-03-23T17:55:54;12.20;99.90
3923;DHT22;1976;51.694;6.256;2023-03-23T17:58:20;12.20;99.90
3923;DHT22;1976;51.694;6.256;2023-03-23T18:00:46;12.20;99.90
3923;DHT22;1976;51.694;6.256;2023-03-23T18:03:12;12.20;99.90
3923;DHT22;1976;51.694;6.256;2023-03-23T18:05:37;12.30;99.90
3923;DHT22;1976;51.694;6.256;2023-03-23T18:08:07;12.20;99.90
3923;DHT22;1976;51.694;6.256;2023-03-23T18:10:35;12.30;99.90
3923;DHT22;1976;51.694;6.256;2023-03-23T18:13:02;12.30;99.90
3923;DHT22;1976;51.694;6.256;2023-03-23T18:15:28;12.40;99.90
3923;DHT22;1976;51.694;6.256;2023-03-23T18:17:55;12.50;99.90
3923;DHT22;1976;51.694;6.256;2023-03-23T18:20:21;12.50;99.90
3923;DHT22;1976;51.694;6.256;2023-03-23T18:22:47;12.60;99.90
3923;DHT22;1976;51.694;6.256;2023-03-23T18:25:14;12.60;99.90
3923;DHT22;1976;51.694;6.256;2023-03-23T18:27:40;12.70;99.90
3923;DHT22;1976;51.694;6.256;2023-03-23T18:30:07;12.80;99.90
3923;DHT22;1976;51.694;6.256;2023-03-23T18:32:37;12.80;99.90
3923;DHT22;1976;51.694;6.256;2023-03-23T18:35:04;12.90;99.90
3923;DHT22;1976;51.694;6.256;2023-03-23T18:37:31;12.90;99.90
3923;DHT22;1976;51.694;6.256;2023-03-23T18:39:58;13.00;99.90
3923;DHT22;1976;51.694;6.256;2023-03-23T18:42:23;13.00;99.90
3923;DHT22;1976;51.694;6.256;2023-03-23T18:44:52;13.00;99.90
3923;DHT22;1976;51.694;6.256;2023-03-23T18:47:18;13.10;99.90
3923;DHT22;1976;51.694;6.256;2023-03-23T18:49:46;13.10;99.90
3923;DHT22;1976;51.694;6.256;2023-03-23T18:52:18;13.10;99.90
3923;DHT22;1976;51.694;6.256;2023-03-23T18:54:44;13.00;99.90
3923;DHT22;1976;51.694;6.256;2023-03-23T18:57:10;13.00;99.90
3923;DHT22;1976;51.694;6.256;2023-03-23T18:59:37;13.10;99.90
3923;DHT22;1976;51.694;6.256;2023-03-23T19:02:03;13.20;99.90
3923;DHT22;1976;51.694;6.256;2023-03-23T19:04:30;13.20;99.90
3923;DHT22;1976;51.694;6.256;2023-03-23T19:06:58;13.20;99.90
3923;DHT22;1976;51.694;6.256;2023-03-23T19:09:24;13.20;99.90
3923;DHT22;1976;51.694;6.256;2023-03-23T19:11:49;13.20;99.90
3923;DHT22;1976;51.694;6.256;2023-03-23T19:14:15;13.20;99.90
3923;DHT22;1976;51.694;6.256;2023-03-23T19:16:42;13.20;99.90
3923;DHT22;1976;51.694;6.256;2023-03-23T19:19:07;13.30;99.90
3923;DHT22;1976;51.694;6.256;2023-03-23T19:21:34;13.30;99.90
3923;DHT22;1976;51.694;6.256;2023-03-23T19:24:01;13.40;99.90
3923;DHT22;1976;51.694;6.256;2023-03-23T19:26:36;13.30;99.90
3923;DHT22;1976;51.694;6.256;2023-03-23T19:29:05;13.30;99.90
3923;DHT22;1976;51.694;6.256;2023-03-23T19:31:32;13.30;99.90
3923;DHT22;1976;51.694;6.256;2023-03-23T19:33:58;13.30;99.90
3923;DHT22;1976;51.694;6.256;2023-03-23T19:36:24;13.30;99.90
3923;DHT22;1976;51.694;6.256;2023-03-23T19:38:50;13.40;99.90
3923;DHT22;1976;51.694;6.256;2023-03-23T19:41:17;13.30;99.90
3923;DHT22;1976;51.694;6.256;2023-03-23T19:43:42;13.30;99.90
3923;DHT22;1976;51.694;6.256;2023-03-23T19:48:38;13.40;99.90
3923;DHT22;1976;51.694;6.256;2023-03-23T19:51:04;13.40;99.90
3923;DHT22;1976;51.694;6.256;2023-03-23T19:53:31;13.40;99.90
3923;DHT22;1976;51.694;6.256;2023-03-23T19:55:57;13.50;99.90
3923;DHT22;1976;51.694;6.256;2023-03-23T19:58:23;13.50;99.90
3923;DHT22;1976;51.694;6.256;2023-03-23T20:00:48;13.50;99.90
3923;DHT22;1976;51.694;6.256;2023-03-23T20:03:14;13.50;99.90
3923;DHT22;1976;51.694;6.256;2023-03-23T20:05:41;13.50;99.90
3923;DHT22;1976;51.694;6.256;2023-03-23T20:08:06;13.50;99.90
3923;DHT22;1976;51.694;6.256;2023-03-23T20:10:34;13.50;99.90
3923;DHT22;1976;51.694;6.256;2023-03-23T20:13:01;13.50;99.90
3923;DHT22;1976;51.694;6.256;2023-03-23T20:15:28;13.50;99.90
3923;DHT22;1976;51.694;6.256;2023-03-23T20:17:54;13.50;99.90
3923;DHT22;1976;51.694;6.256;2023-03-23T20:20:19;13.40;99.90
3923;DHT22;1976;51.694;6.256;2023-03-23T20:22:45;13.50;99.90
3923;DHT22;1976;51.694;6.256;2023-03-23T20:25:11;13.40;99.90
3923;DHT22;1976;51.694;6.256;2023-03-23T20:27:37;13.40;99.90
3923;DHT22;1976;51.694;6.256;2023-03-23T20:30:04;13.40;99.90
3923;DHT22;1976;51.694;6.256;2023-03-23T20:35:00;13.30;99.90
3923;DHT22;1976;51.694;6.256;2023-03-23T20:37:26;13.40;99.90
3923;DHT22;1976;51.694;6.256;2023-03-23T20:39:51;13.40;99.90
3923;DHT22;1976;51.694;6.256;2023-03-23T20:42:17;13.40;99.90
3923;DHT22;1976;51.694;6.256;2023-03-23T20:44:43;13.40;99.90
3923;DHT22;1976;51.694;6.256;2023-03-23T20:47:09;13.30;99.90
3923;DHT22;1976;51.694;6.256;2023-03-23T20:49:35;13.30;99.90
3923;DHT22;1976;51.694;6.256;2023-03-23T20:52:03;13.10;99.90
3923;DHT22;1976;51.694;6.256;2023-03-23T20:54:30;13.10;99.90
3923;DHT22;1976;51.694;6.256;2023-03-23T20:56:56;13.10;99.90
3923;DHT22;1976;51.694;6.256;2023-03-23T20:59:25;13.10;99.90
3923;DHT22;1976;51.694;6.256;2023-03-23T21:01:51;12.90;99.90
3923;DHT22;1976;51.694;6.256;2023-03-23T21:04:20;12.90;99.90
3923;DHT22;1976;51.694;6.256;2023-03-23T21:06:47;12.70;99.90
3923;DHT22;1976;51.694;6.256;2023-03-23T21:09:16;12.60;99.90
3923;DHT22;1976;51.694;6.256;2023-03-23T21:11:42;12.60;99.90
3923;DHT22;1976;51.694;6.256;2023-03-23T21:14:09;12.60;99.90
3923;DHT22;1976;51.694;6.256;2023-03-23T21:16:36;12.60;99.90
3923;DHT22;1976;51.694;6.256;2023-03-23T21:19:02;12.60;99.90
3923;DHT22;1976;51.694;6.256;2023-03-23T21:21:28;12.70;99.90
3923;DHT22;1976;51.694;6.256;2023-03-23T21:23:54;12.70;99.90
3923;DHT22;1976;51.694;6.256;2023-03-23T21:26:24;12.60;99.90
3923;DHT22;1976;51.694;6.256;2023-03-23T21:28:51;12.60;99.90
3923;DHT22;1976;51.694;6.256;2023-03-23T21:31:19;12.50;99.90
3923;DHT22;1976;51.694;6.256;2023-03-23T21:36:11;12.40;99.90
3923;DHT22;1976;51.694;6.256;2023-03-23T21:38:37;12.30;99.90
3923;DHT22;1976;51.694;6.256;2023-03-23T21:41:10;12.30;99.90
3923;DHT22;1976;51.694;6.256;2023-03-23T21:43:36;12.20;99.90
3923;DHT22;1976;51.694;6.256;2023-03-23T21:46:06;13.20;99.90
3923;DHT22;1976;51.694;6.256;2023-03-23T21:48:34;12.10;99.90
3923;DHT22;1976;51.694;6.256;2023-03-23T21:51:08;12.00;99.90
3923;DHT22;1976;51.694;6.256;2023-03-23T21:53:34;12.00;99.90
3923;DHT22;1976;51.694;6.256;2023-03-23T21:56:03;11.90;99.90
3923;DHT22;1976;51.694;6.256;2023-03-23T21:58:29;11.90;99.90
3923;DHT22;1976;51.694;6.256;2023-03-23T22:03:24;11.70;99.90
3923;DHT22;1976;51.694;6.256;2023-03-23T22:05:51;11.70;99.90
3923;DHT22;1976;51.694;6.256;2023-03-23T22:08:24;11.70;99.90
3923;DHT22;1976;51.694;6.256;2023-03-23T22:10:51;11.70;99.90
3923;DHT22;1976;51.694;6.256;2023-03-23T22:13:17;11.70;99.90
3923;DHT22;1976;51.694;6.256;2023-03-23T22:15:46;11.60;99.90
3923;DHT22;1976;51.694;6.256;2023-03-23T22:18:12;11.60;99.90
3923;DHT22;1976;51.694;6.256;2023-03-23T22:20:37;11.60;99.90
3923;DHT22;1976;51.694;6.256;2023-03-23T22:23:05;11.60;99.90
3923;DHT22;1976;51.694;6.256;2023-03-23T22:25:32;11.60;99.90
3923;DHT22;1976;51.694;6.256;2023-03-23T22:27:59;11.60;99.90
3923;DHT22;1976;51.694;6.256;2023-03-23T22:30:25;11.50;99.90
3923;DHT22;1976;51.694;6.256;2023-03-23T22:32:54;11.40;99.90
3923;DHT22;1976;51.694;6.256;2023-03-23T22:35:20;11.40;99.90
3923;DHT22;1976;51.694;6.256;2023-03-23T22:37:46;11.40;99.90
3923;DHT22;1976;51.694;6.256;2023-03-23T22:40:12;11.40;99.90
3923;DHT22;1976;51.694;6.256;2023-03-23T22:42:37;11.30;99.90
3923;DHT22;1976;51.694;6.256;2023-03-23T22:47:33;11.30;99.90
3923;DHT22;1976;51.694;6.256;2023-03-23T22:49:59;11.30;99.90
3923;DHT22;1976;51.694;6.256;2023-03-23T22:52:24;11.30;99.90
3923;DHT22;1976;51.694;6.256;2023-03-23T22:54:51;11.30;99.90
3923;DHT22;1976;51.694;6.256;2023-03-23T22:57:17;11.30;99.90
3923;DHT22;1976;51.694;6.256;2023-03-23T22:59:47;11.30;99.90
3923;DHT22;1976;51.694;6.256;2023-03-23T23:02:13;11.30;99.90
3923;DHT22;1976;51.694;6.256;2023-03-23T23:07:05;11.30;99.90
3923;DHT22;1976;51.694;6.256;2023-03-23T23:09:33;11.30;99.90
3923;DHT22;1976;51.694;6.256;2023-03-23T23:11:59;11.30;99.90
3923;DHT22;1976;51.694;6.256;2023-03-23T23:14:24;11.30;99.90
3923;DHT22;1976;51.694;6.256;2023-03-23T23:16:50;11.30;99.90
3923;DHT22;1976;51.694;6.256;2023-03-23T23:19:17;11.30;99.90
3923;DHT22;1976;51.694;6.256;2023-03-23T23:21:42;11.30;99.90
3923;DHT22;1976;51.694;6.256;2023-03-23T23:24:08;11.30;99.90
3923;DHT22;1976;51.694;6.256;2023-03-23T23:26:33;11.30;99.90
3923;DHT22;1976;51.694;6.256;2023-03-23T23:28:59;11.30;99.90
3923;DHT22;1976;51.694;6.256;2023-03-23T23:31:28;11.30;99.90
3923;DHT22;1976;51.694;6.256;2023-03-23T23:33:58;11.30;99.90
3923;DHT22;1976;51.694;6.256;2023-03-23T23:36:25;11.30;99.90
3923;DHT22;1976;51.694;6.256;2023-03-23T23:38:58;11.30;99.90
3923;DHT22;1976;51.694;6.256;2023-03-23T23:41:25;11.30;99.90
3923;DHT22;1976;51.694;6.256;2023-03-23T23:43:51;11.30;99.90
3923;DHT22;1976;51.694;6.256;2023-03-23T23:48:43;11.30;99.90
3923;DHT22;1976;51.694;6.256;2023-03-23T23:51:09;11.30;99.90
3923;DHT22;1976;51.694;6.256;2023-03-23T23:53:38;11.30;99.90
3923;DHT22;1976;51.694;6.256;2023-03-23T23:56:07;11.30;99.90
3923;DHT22;1976;51.694;6.256;2023-03-23T23:58:33;11.40;99.90
